KLWS/LWS METAR and TAF weather

Enter ICAO airport designator
Station Type Date Time Source
KLWS METAR 2021/07/29 00:56 UTC NOAA

KLWS 290056Z 30010KT 10SM CLR 34/11 A2998 RMK AO2 SLP139 T03390111


Station Type Date Time Source
KLWS Decoded METAR 2021/07/29 00:56 UTC NOAA

LEWISTON NEZ PERCE CO AIRPORT , ID, United States (KLWS) 46-22N 117-01W 438M
Jul 28, 2021 - 08:56 PM EDT / 2021.07.29 0056 UTC
Wind: from the WNW (300 degrees) at 12 MPH (10 KT):0
Visibility: 10 mile(s):0
Sky conditions: clear
Temperature: 93.0 F (33.9 C)
Dew Point: 52.0 F (11.1 C)
Relative Humidity: 24%
Pressure (altimeter): 29.98 in. Hg (1015 hPa)
ob: KLWS 290056Z 30010KT 10SM CLR 34/11 A2998 RMK AO2 SLP139 T03390111
cycle: 1

Station Type Date Time Source
KLWS TAF 2021/07/28 18:28 UTC NOAA

TAF KLWS 281725Z 2818/2918 VRB04KT P6SM OVC200
FM282100 32008G17KT 6SM HZ SCT050 SCT250
FM290500 VRB04KT P6SM SCT250
FM291200 10005KT P6SM SKC

Example: see airport list